METAR Data
IDs: Format: Raw Decoded Include TAF

Data at: 0948 UTC 28 Sep 2021

LSMD 280920Z 07004KT 340V110 9999 BKN027 OVC046 15/10 Q1024 RMK BLU